Time;durP1;ratioP1;P1;durP2;ratioP2;P2;SDS_P1;SDS_P2;PMS_P1;PMS_P2;Temp;Humidity;BMP_temperature;BMP_pressure;BME280_temperature;BME280_humidity;BME280_pressure;Samples;Min_cycle;Max_cycle;Signal;HPM_P1;HPM_P2
2022/03/18 00:01:53;;;;;;;22.37;11.50;;;;;;;-7.59;84.03;102202.63;1800402;79;21191;-82
2022/03/18 00:05:01;;;;;;;13.10;9.10;;;;;;;-7.62;83.95;102189.39;1800221;79;21219;-82
2022/03/18 00:08:06;;;;;;;17.98;11.05;;;;;;;-7.63;84.10;102188.05;1799130;79;21182;-75
2022/03/18 00:11:11;;;;;;;18.52;10.30;;;;;;;-7.67;83.97;102199.60;1800394;79;21195;-75
2022/03/18 00:14:19;;;;;;;19.20;9.80;;;;;;;-7.72;83.89;102202.30;1800295;79;21168;-75
2022/03/18 00:17:24;;;;;;;22.17;11.28;;;;;;;-7.81;83.80;102191.76;1800386;79;21199;-75
2022/03/18 00:20:29;;;;;;;21.87;10.93;;;;;;;-7.90;84.07;102197.16;1800508;79;21678;-81
2022/03/18 00:23:35;;;;;;;21.40;12.10;;;;;;;-7.97;84.46;102195.89;1800409;79;21435;-82
2022/03/18 00:26:42;;;;;;;17.65;11.10;;;;;;;-8.03;84.69;102208.34;1778287;79;21243;-75
2022/03/18 00:29:48;;;;;;;19.48;10.58;;;;;;;-8.11;84.85;102200.43;1800249;79;21155;-82
2022/03/18 00:32:54;;;;;;;27.50;11.22;;;;;;;-8.15;84.87;102197.36;1799139;79;21203;-82
2022/03/18 00:36:03;;;;;;;18.77;11.05;;;;;;;-8.18;85.08;102204.05;1800366;79;21685;-75
2022/03/18 00:39:08;;;;;;;17.73;10.50;;;;;;;-8.21;85.23;102197.41;1800249;79;21200;-82
2022/03/18 00:42:14;;;;;;;21.10;10.30;;;;;;;-8.22;85.41;102199.64;1799602;79;21238;-82
2022/03/18 00:45:20;;;;;;;15.30;9.05;;;;;;;-8.21;85.57;102200.07;1800210;79;21176;-80
2022/03/18 00:52:08;;;;;;;19.85;12.20;;;;;;;-8.20;85.59;102215.10;1797132;80;21227;-75
2022/03/18 00:55:15;;;;;;;18.50;10.28;;;;;;;-8.21;85.37;102202.72;1797488;80;21164;-75
2022/03/18 00:58:21;;;;;;;17.05;9.55;;;;;;;-8.25;85.32;102208.49;1795987;80;21212;-75
2022/03/18 01:01:28;;;;;;;17.48;10.00;;;;;;;-8.28;85.28;102201.91;1797473;80;21733;-75
2022/03/18 01:04:35;;;;;;;19.67;10.30;;;;;;;-8.32;85.33;102208.57;1797625;80;21148;-75
2022/03/18 01:07:40;;;;;;;21.27;10.60;;;;;;;-8.34;85.52;102206.35;1796532;80;21740;-82
2022/03/18 01:10:49;;;;;;;17.95;10.85;;;;;;;-8.37;85.64;102206.43;1795873;80;21226;-81
2022/03/18 01:13:54;;;;;;;22.70;10.82;;;;;;;-8.39;85.72;102204.21;1797174;80;21247;-82
2022/03/18 01:16:59;;;;;;;18.48;9.75;;;;;;;-8.41;85.77;102202.03;1796932;80;21183;-82
2022/03/18 01:20:05;;;;;;;13.50;8.73;;;;;;;-8.45;85.76;102205.59;1796245;80;21756;-81
2022/03/18 01:23:12;;;;;;;21.70;10.23;;;;;;;-8.48;85.86;102205.15;1796140;80;21220;-82
2022/03/18 01:26:17;;;;;;;15.28;9.58;;;;;;;-8.47;85.89;102212.66;1797400;80;21208;-81
2022/03/18 01:29:24;;;;;;;16.12;9.15;;;;;;;-8.50;85.96;102203.84;1795996;80;21231;-81
2022/03/18 01:32:33;;;;;;;17.23;9.98;;;;;;;-8.54;85.98;102198.56;1796644;80;21204;-81
2022/03/18 01:35:39;;;;;;;22.42;11.25;;;;;;;-8.59;86.06;102198.58;1797452;80;21756;-75
2022/03/18 01:38:45;;;;;;;18.65;10.48;;;;;;;-8.63;86.21;102203.92;1795944;80;21685;-75
2022/03/18 01:41:51;;;;;;;17.12;10.32;;;;;;;-8.69;86.37;102202.19;1795988;80;21193;-81
2022/03/18 01:44:56;;;;;;;18.80;10.10;;;;;;;-8.73;86.53;102211.05;1796821;80;21164;-82
2022/03/18 01:48:02;;;;;;;22.95;11.08;;;;;;;-8.80;86.81;102207.56;1797539;80;21192;-76
2022/03/18 01:51:09;;;;;;;22.02;10.93;;;;;;;-8.85;86.99;102221.70;1797536;80;21155;-80
2022/03/18 01:57:37;;;;;;;17.98;10.85;;;;;;;-8.85;87.32;102225.68;1763631;81;21215;-82
2022/03/18 02:00:42;;;;;;;25.35;9.83;;;;;;;-8.86;87.55;102214.64;1763607;81;21224;-75
2022/03/18 02:03:48;;;;;;;23.87;10.93;;;;;;;-8.85;87.63;102225.68;1763729;81;21200;-81
2022/03/18 02:06:55;;;;;;;18.52;11.03;;;;;;;-8.85;87.72;102216.40;1762343;81;21216;-81
2022/03/18 02:10:01;;;;;;;15.90;10.60;;;;;;;-8.86;87.72;102216.84;1759441;81;21196;-81
2022/03/18 02:13:08;;;;;;;16.15;10.20;;;;;;;-8.87;87.74;102226.15;1733177;81;21219;-75
2022/03/18 02:16:14;;;;;;;18.60;10.35;;;;;;;-8.90;87.73;102233.66;1734423;81;21184;-75
2022/03/18 02:19:20;;;;;;;22.85;11.63;;;;;;;-8.91;87.72;102241.62;1734823;82;21683;-77
2022/03/18 02:22:28;;;;;;;20.62;10.23;;;;;;;-8.94;87.76;102241.62;1734433;82;21801;-75
2022/03/18 02:25:35;;;;;;;24.85;11.38;;;;;;;-8.96;87.81;102248.72;1734735;81;21159;-81
2022/03/18 02:28:41;;;;;;;17.80;10.88;;;;;;;-8.99;87.83;102242.09;1735293;82;21202;-81
2022/03/18 02:31:46;;;;;;;20.00;10.28;;;;;;;-9.04;87.96;102235.03;1735478;82;21230;-75
2022/03/18 02:34:54;;;;;;;26.80;10.13;;;;;;;-9.06;88.03;102230.20;1735492;82;21728;-81
2022/03/18 02:37:59;;;;;;;23.27;11.05;;;;;;;-9.10;88.14;102228.88;1735542;82;21210;-81
2022/03/18 02:41:06;;;;;;;19.12;11.22;;;;;;;-9.14;88.28;102238.61;1735587;82;21756;-76
2022/03/18 02:44:11;;;;;;;21.10;10.55;;;;;;;-9.17;88.40;102229.77;1735622;82;21171;-81
2022/03/18 02:47:17;;;;;;;22.00;10.88;;;;;;;-9.21;88.54;102235.55;1735570;82;21736;-75
2022/03/18 02:50:23;;;;;;;16.73;10.53;;;;;;;-9.23;88.63;102241.28;1741681;81;21732;-81
2022/03/18 02:53:29;;;;;;;19.60;11.65;;;;;;;-9.24;88.76;102253.23;1706787;84;21213;-76
2022/03/18 02:56:34;;;;;;;21.65;10.55;;;;;;;-9.28;88.85;102260.30;1705554;84;21216;-81
2022/03/18 02:59:41;;;;;;;20.48;11.68;;;;;;;-9.30;88.96;102261.63;1759865;81;21170;-75
2022/03/18 03:02:47;;;;;;;16.75;10.15;;;;;;;-9.29;88.99;102274.44;1758178;81;21236;-75
2022/03/18 03:09:17;;;;;;;17.05;9.85;;;;;;;-9.29;89.02;102279.73;1759690;81;21233;-82
2022/03/18 03:12:16;;;;;;;;;;;;;;;-9.28;89.01;102280.17;1760902;81;21797;-75
2022/03/18 03:15:21;;;;;;;17.23;9.60;;;;;;;-9.27;89.01;102277.54;1759760;81;20192;-75
2022/03/18 03:18:28;;;;;;;24.40;11.28;;;;;;;-9.29;89.00;102279.73;1759656;81;21763;-75
2022/03/18 03:21:34;;;;;;;20.70;10.80;;;;;;;-9.32;89.00;102293.86;1759817;81;21717;-75
2022/03/18 03:24:39;;;;;;;23.92;11.70;;;;;;;-9.34;89.03;102294.33;1759843;81;21723;-75
2022/03/18 03:27:44;;;;;;;22.70;11.68;;;;;;;-9.35;89.16;102304.94;1759755;81;21797;-75
2022/03/18 03:30:49;;;;;;;23.32;10.32;;;;;;;-9.36;89.29;102300.50;1759554;81;21802;-75
2022/03/18 03:33:55;;;;;;;19.17;11.50;;;;;;;-9.34;89.41;102308.91;1759858;81;21196;-75
2022/03/18 03:37:01;;;;;;;18.27;10.80;;;;;;;-9.31;89.43;102309.35;1759703;81;21198;-81
2022/03/18 03:40:06;;;;;;;17.20;10.35;;;;;;;-9.29;89.45;102310.22;1759752;81;21150;-75
2022/03/18 03:43:10;;;;;;;17.40;10.53;;;;;;;-9.28;89.46;102317.28;1759707;81;21552;-81
2022/03/18 03:46:16;;;;;;;23.92;11.30;;;;;;;-9.29;89.42;102319.50;1759662;81;21214;-81
2022/03/18 03:49:22;;;;;;;15.45;9.65;;;;;;;-9.28;89.41;102319.93;1759801;81;21155;-76
2022/03/18 03:52:28;;;;;;;17.35;10.78;;;;;;;-9.24;89.49;102332.30;1758504;81;21176;-76
2022/03/18 03:55:34;;;;;;;20.88;10.53;;;;;;;-9.24;89.47;102335.39;1761328;81;21213;-75
2022/03/18 03:58:39;;;;;;;19.10;11.30;;;;;;;-9.24;89.54;102330.97;1761288;81;21198;-75
2022/03/18 04:01:40;;;;;;;17.15;10.30;;;;;;;-9.22;89.57;102337.17;1760999;81;21190;-81
2022/03/18 04:04:47;;;;;;;17.23;10.78;;;;;;;-9.22;89.59;102342.48;1761412;81;21607;-80
2022/03/18 04:07:52;;;;;;;22.37;11.48;;;;;;;-9.19;89.66;102343.78;1761286;81;21202;-81
2022/03/18 04:10:58;;;;;;;14.87;9.93;;;;;;;-9.17;89.71;102358.34;1759934;81;21189;-76
2022/03/18 04:14:03;;;;;;;22.35;11.45;;;;;;;-9.14;89.78;102356.59;1761320;81;21201;-81
2022/03/18 04:17:04;;;;;;;23.75;9.88;;;;;;;-9.14;89.75;102359.23;1761240;81;21198;-81
2022/03/18 04:19:57;;;;;;;19.17;11.18;;;;;;;-9.09;89.78;102363.20;1761319;81;21277;-81
2022/03/18 04:22:43;;;;;;;21.00;11.63;;;;;;;-9.05;89.88;102357.90;1761365;81;21795;-81
2022/03/18 04:25:36;;;;;;;23.00;10.38;;;;;;;-8.99;89.88;102362.75;1761333;81;21154;-81
2022/03/18 04:28:42;;;;;;;18.90;10.88;;;;;;;-8.96;89.76;102364.08;1761340;81;21158;-80
2022/03/18 04:31:40;;;;;;;18.92;10.50;;;;;;;-8.94;89.62;102356.55;1761244;81;21193;-75
2022/03/18 04:34:48;;;;;;;14.60;10.68;;;;;;;-8.94;89.49;102367.16;1761438;81;21692;-81
2022/03/18 04:37:54;;;;;;;22.32;11.48;;;;;;;-8.95;89.52;102367.17;1761288;81;21202;-75
2022/03/18 04:40:59;;;;;;;21.17;10.63;;;;;;;-8.95;89.52;102366.72;1759788;81;21177;-81
2022/03/18 04:44:07;;;;;;;17.70;9.28;;;;;;;-8.96;89.48;102366.29;1761372;81;21225;-81
2022/03/18 04:47:13;;;;;;;20.23;11.68;;;;;;;-8.98;89.57;102365.87;1761466;81;21209;-76
2022/03/18 04:50:20;;;;;;;21.23;11.40;;;;;;;-9.01;89.68;102394.14;1761212;81;21722;-75
2022/03/18 04:53:26;;;;;;;21.85;10.55;;;;;;;-9.00;89.67;102376.45;1759976;81;21275;-82
2022/03/18 04:59:56;;;;;;;21.90;11.48;;;;;;;-9.00;90.25;102385.73;1761186;81;21213;-76
2022/03/18 05:03:03;;;;;;;18.17;10.78;;;;;;;-8.96;90.34;102390.16;1760413;81;21185;-82
2022/03/18 05:06:10;;;;;;;18.15;10.75;;;;;;;-8.91;90.11;102388.38;1761180;81;21165;-82
2022/03/18 05:09:16;;;;;;;16.12;10.95;;;;;;;-8.84;90.08;102393.25;1761129;81;21162;-81
2022/03/18 05:12:17;;;;;;;20.02;11.03;;;;;;;-8.75;90.09;102399.83;1760001;81;21217;-76
2022/03/18 05:15:12;;;;;;;22.05;8.43;;;;;;;-8.66;90.03;102402.91;1759585;81;21765;-76
2022/03/18 05:18:16;;;;;;;;;;;;;;;-8.58;89.89;102407.77;1763832;81;21778;-82
2022/03/18 05:21:22;;;;;;;17.37;9.48;;;;;;;-8.52;89.57;102411.28;1761246;81;20588;-75
2022/03/18 05:24:27;;;;;;;14.75;8.65;;;;;;;-8.46;89.15;102422.80;1761296;81;21173;-76
2022/03/18 05:27:33;;;;;;;21.93;10.70;;;;;;;-8.42;88.58;102411.25;1762116;80;21464;-75
2022/03/18 05:30:39;;;;;;;20.17;11.08;;;;;;;-8.41;88.37;102415.25;1759963;81;21161;-81
2022/03/18 05:33:46;;;;;;;20.80;11.30;;;;;;;-8.38;87.90;102405.05;1759953;81;21508;-80
2022/03/18 05:36:51;;;;;;;21.80;10.93;;;;;;;-8.37;87.20;102424.09;1759953;81;21201;-76
2022/03/18 05:39:57;;;;;;;24.40;10.63;;;;;;;-8.39;86.75;102429.83;1760066;81;21740;-76
2022/03/18 05:43:04;;;;;;;20.23;10.50;;;;;;;-8.38;87.11;102414.34;1777644;80;21211;-76
2022/03/18 05:46:09;;;;;;;21.02;11.38;;;;;;;-8.34;87.15;102430.22;1791612;80;21168;-77
2022/03/18 05:49:18;;;;;;;23.00;11.43;;;;;;;-8.28;87.33;102432.88;1791652;80;22332;-76
2022/03/18 05:52:18;;;;;;;16.80;9.53;;;;;;;-8.17;87.31;102443.90;1790762;80;21164;-76
2022/03/18 05:55:24;;;;;;;21.52;9.70;;;;;;;-8.12;86.58;102431.48;1789461;79;21191;-82
2022/03/18 05:58:31;;;;;;;22.75;10.65;;;;;;;-8.10;85.85;102442.52;1773441;80;21812;-82
2022/03/18 06:01:37;;;;;;;22.10;10.35;;;;;;;-8.05;86.09;102438.08;1769655;81;21221;-76
2022/03/18 06:04:43;;;;;;;19.48;9.95;;;;;;;-7.91;86.15;102442.45;1769625;81;21189;-82
2022/03/18 06:11:48;;;;;;;20.60;11.15;;;;;;;-7.75;86.02;102449.47;1769817;81;21189;-82
2022/03/18 06:14:24;;;;;;;24.67;10.55;;;;;;;-7.56;83.84;102449.80;1769444;81;21157;-76
2022/03/18 06:17:31;;;;;;;19.45;9.80;;;;;;;-7.55;83.60;102478.14;1769679;81;21193;-76
2022/03/18 06:20:36;;;;;;;19.15;9.45;;;;;;;-7.56;83.00;102457.77;1769561;81;21232;-76
2022/03/18 06:23:40;;;;;;;21.25;10.15;;;;;;;-7.54;82.65;102465.28;1769548;81;21161;-76
2022/03/18 06:26:46;;;;;;;22.40;10.28;;;;;;;-7.54;82.29;102489.66;1770066;80;21196;-83
2022/03/18 06:29:52;;;;;;;43.75;20.25;;;;;;;-7.46;82.90;102468.78;1770078;81;21165;-75
2022/03/18 06:32:57;;;;;;;25.75;11.68;;;;;;;-7.19;83.37;102472.62;1769816;81;21452;-77
2022/03/18 06:36:03;;;;;;;27.73;12.20;;;;;;;-6.87;82.89;102467.02;1769568;81;21830;-76
2022/03/18 06:39:08;;;;;;;24.55;10.45;;;;;;;-6.58;81.68;102469.45;1769679;81;21192;-76
2022/03/18 06:42:13;;;;;;;20.57;9.63;;;;;;;-6.39;79.85;102489.66;1749967;80;21176;-76
2022/03/18 06:45:21;;;;;;;28.73;14.23;;;;;;;-6.20;79.64;102481.03;1747268;82;21153;-82
2022/03/18 06:48:28;;;;;;;23.25;11.48;;;;;;;-6.03;78.51;102497.69;1748796;80;21157;-82
2022/03/18 06:51:33;;;;;;;23.47;13.48;;;;;;;-5.90;77.27;102482.41;1781651;80;21219;-76
2022/03/18 06:54:38;;;;;;;16.67;9.55;;;;;;;-5.77;76.32;102492.48;1781738;80;21753;-82
2022/03/18 06:57:44;;;;;;;23.07;10.60;;;;;;;-5.68;75.48;102509.70;1750837;82;21188;-83
2022/03/18 07:00:50;;;;;;;18.62;9.10;;;;;;;-5.63;74.95;102483.86;1753525;82;21171;-76
2022/03/18 07:03:56;;;;;;;16.23;9.05;;;;;;;-5.55;74.16;102509.98;1753177;82;21225;-84
2022/03/18 07:07:01;;;;;;;15.88;8.48;;;;;;;-5.68;72.35;102504.37;1761762;80;21743;-83
2022/03/18 07:10:06;;;;;;;21.73;9.28;;;;;;;-5.85;72.92;102499.23;1783627;80;21684;-83
2022/03/18 07:13:13;;;;;;;17.92;9.28;;;;;;;-5.81;73.07;102522.74;1784252;80;21178;-76
2022/03/18 07:19:43;;;;;;;15.65;9.03;;;;;;;-5.57;72.11;102513.09;1784354;80;21173;-83
2022/03/18 07:22:49;;;;;;;17.12;7.28;;;;;;;-5.63;71.53;102530.52;1783995;80;21328;-84
2022/03/18 07:25:54;;;;;;;26.42;12.95;;;;;;;-5.67;71.63;102524.34;1784327;80;21198;-83
2022/03/18 07:29:03;;;;;;;;;;;;;;;-5.72;71.65;102516.84;1787257;80;21162;-83
2022/03/18 07:32:05;;;;;;;19.27;8.65;;;;;;;-5.71;71.74;102517.72;1785414;80;20617;-76
2022/03/18 07:35:11;;;;;;;14.83;8.03;;;;;;;-5.70;71.65;102524.36;1785228;80;21225;-84
2022/03/18 07:38:15;;;;;;;17.98;8.60;;;;;;;-5.59;71.34;102504.70;1785638;80;21193;-76
2022/03/18 07:41:23;;;;;;;17.35;8.28;;;;;;;-5.51;70.72;102506.34;1784198;80;21197;-76
2022/03/18 07:44:29;;;;;;;15.63;8.90;;;;;;;-5.34;70.82;102514.58;1786826;80;21213;-83
2022/03/18 07:47:37;;;;;;;19.75;10.78;;;;;;;-5.23;69.64;102525.97;1786640;80;21209;-76
2022/03/18 07:50:44;;;;;;;18.40;9.40;;;;;;;-5.12;68.83;102525.39;1787807;80;21244;-76
2022/03/18 07:53:50;;;;;;;16.27;8.53;;;;;;;-4.97;69.82;102518.94;1788422;80;21185;-76
2022/03/18 07:56:57;;;;;;;15.58;8.43;;;;;;;-4.76;69.11;102511.02;1788329;80;21222;-83
2022/03/18 08:00:03;;;;;;;19.45;9.25;;;;;;;-4.68;68.18;102518.47;1786281;80;21225;-83
2022/03/18 08:03:09;;;;;;;20.05;8.38;;;;;;;-4.61;68.55;102521.48;1786769;80;21737;-75
2022/03/18 08:06:16;;;;;;;20.60;11.70;;;;;;;-4.50;67.94;102512.81;1787216;80;21468;-76
2022/03/18 08:09:22;;;;;;;27.45;14.63;;;;;;;-4.49;67.29;102500.34;1786418;80;21773;-83
2022/03/18 08:12:28;;;;;;;27.55;12.98;;;;;;;-4.66;66.08;102521.55;1758712;80;21311;-83
2022/03/18 08:15:35;;;;;;;15.43;9.63;;;;;;;-4.89;65.97;102530.39;1788074;80;21162;-77
2022/03/18 08:18:41;;;;;;;13.83;8.65;;;;;;;-5.07;66.83;102527.53;1787936;80;21166;-83
2022/03/18 08:21:47;;;;;;;12.05;8.30;;;;;;;-5.14;67.51;102525.84;1787097;80;21190;-76
2022/03/18 08:24:56;;;;;;;17.42;10.60;;;;;;;-5.21;66.72;102532.19;1786939;80;21165;-83
2022/03/18 08:27:56;;;;;;;13.10;8.50;;;;;;;-5.18;67.44;102537.46;1788106;80;21177;-83
2022/03/18 08:31:01;;;;;;;13.55;8.13;;;;;;;-5.07;67.68;102527.53;1787990;80;21186;-76
2022/03/18 08:34:08;;;;;;;15.30;8.83;;;;;;;-4.90;66.85;102518.80;1788036;80;21260;-76
2022/03/18 08:37:13;;;;;;;19.75;10.15;;;;;;;-4.76;67.16;102524.38;1787507;79;21715;-80
2022/03/18 08:40:20;;;;;;;17.10;6.55;;;;;;;-4.67;65.89;102526.90;1788152;80;21146;-82
2022/03/18 08:43:26;;;;;;;17.67;8.20;;;;;;;-4.60;66.22;102533.04;1786493;80;21181;-76
2022/03/18 08:46:34;;;;;;;11.45;8.05;;;;;;;-4.54;66.65;102523.58;1788060;80;21202;-76
2022/03/18 08:49:40;;;;;;;20.02;11.50;;;;;;;-4.39;66.03;102525.52;1768684;80;21146;-82
2022/03/18 08:52:46;;;;;;;17.48;9.28;;;;;;;-4.29;66.08;102516.88;1768004;80;21197;-83
2022/03/18 08:55:54;;;;;;;16.62;10.03;;;;;;;-4.31;66.23;102514.70;1786526;80;21268;-76
2022/03/18 08:59:06;;;;;;;53.05;23.27;;;;;;;-4.39;66.04;102520.63;1788085;80;21739;-77
2022/03/18 09:02:08;;;;;;;41.37;19.45;;;;;;;-4.38;66.48;102533.08;1786871;80;21703;-77
2022/03/18 09:05:15;;;;;;;21.35;13.13;;;;;;;-4.35;65.96;102518.34;1787240;80;21173;-76
2022/03/18 09:08:21;;;;;;;13.58;8.93;;;;;;;-4.29;65.91;102530.70;1767691;80;21174;-83
2022/03/18 09:11:25;;;;;;;14.05;8.40;;;;;;;-4.17;65.45;102522.47;1788038;80;21731;-76
2022/03/18 09:14:31;;;;;;;15.63;9.63;;;;;;;-4.06;63.85;102527.15;1787752;80;21202;-76
2022/03/18 09:17:38;;;;;;;32.75;16.42;;;;;;;-4.00;64.92;102521.71;1787130;80;21755;-76
2022/03/18 09:20:44;;;;;;;16.57;9.20;;;;;;;-3.92;63.47;102525.55;1788106;80;21146;-82
2022/03/18 09:23:46;;;;;;;14.65;9.30;;;;;;;-3.87;62.99;102531.23;1786578;80;21245;-83
2022/03/18 09:26:51;;;;;;;15.58;7.92;;;;;;;-3.80;62.86;102519.97;1788096;80;21209;-76
2022/03/18 09:29:57;;;;;;;12.13;7.35;;;;;;;-3.77;62.53;102525.23;1788150;80;21154;-79
2022/03/18 09:33:04;;;;;;;13.10;6.75;;;;;;;-3.71;62.50;102525.60;1786719;80;21198;-83
2022/03/18 09:36:10;;;;;;;13.55;8.40;;;;;;;-3.69;61.61;102525.98;1786698;80;21197;-76
2022/03/18 09:39:17;;;;;;;34.27;16.15;;;;;;;-3.61;62.20;102525.83;1787942;80;21738;-76
2022/03/18 09:42:24;;;;;;;48.85;21.57;;;;;;;-3.46;62.07;102524.63;1787138;80;21177;-82
2022/03/18 09:45:32;;;;;;;33.70;14.93;;;;;;;-3.27;62.96;102520.63;1787211;80;21178;-82
2022/03/18 09:48:40;;;;;;;14.85;9.25;;;;;;;-3.22;59.46;102531.23;1766671;80;21198;-82
2022/03/18 09:51:55;;;;;;;11.28;6.87;;;;;;;-3.31;59.96;102518.05;1786586;80;21529;-76
2022/03/18 09:55:01;;;;;;;10.65;6.95;;;;;;;-3.17;60.08;102523.98;1786672;80;21166;-77
2022/03/18 09:58:07;;;;;;;12.63;7.62;;;;;;;-2.97;60.20;102523.05;1786568;80;21189;-76
2022/03/18 10:01:06;;;;;;;9.63;5.92;;;;;;;-2.76;60.14;102523.48;1786843;80;21158;-76
2022/03/18 10:04:17;;;;;;;16.75;10.03;;;;;;;-2.68;59.10;102545.15;1786931;80;21206;-83
2022/03/18 10:07:23;;;;;;;25.88;13.58;;;;;;;-2.68;59.40;102528.16;1764287;81;21236;-76
2022/03/18 10:10:31;;;;;;;62.67;29.55;;;;;;;-2.69;59.43;102522.39;1764168;81;21702;-76
2022/03/18 10:13:42;;;;;;;34.30;16.10;;;;;;;-2.68;59.75;102524.14;1764448;81;21666;-82
2022/03/18 10:17:00;;;;;;;15.45;9.05;;;;;;;-2.65;59.50;102510.69;1725120;81;21184;-83
2022/03/18 10:20:05;;;;;;;13.58;8.38;;;;;;;-2.62;59.35;102516.86;1736890;80;21768;-83
2022/03/18 10:23:25;;;;;;;17.52;11.20;;;;;;;-2.58;59.85;102524.37;1764884;81;21220;-76
2022/03/18 10:26:21;;;;;;;21.30;12.60;;;;;;;-2.58;60.45;102520.34;1764582;81;21205;-83
2022/03/18 10:29:26;;;;;;;38.23;20.05;;;;;;;-2.63;59.97;102529.84;1745938;81;21173;-82
2022/03/18 10:32:33;;;;;;;14.28;8.65;;;;;;;-2.71;59.85;102518.88;1745714;81;21205;-82
2022/03/18 10:39:04;;;;;;;10.48;6.90;;;;;;;-2.80;59.98;102521.78;1766574;81;21773;-76
2022/03/18 10:42:17;;;;;;;15.05;7.60;;;;;;;-2.83;59.65;102526.74;1745670;81;21200;-82
2022/03/18 10:45:23;;;;;;;12.23;7.45;;;;;;;-2.95;59.33;102521.70;1746123;81;21751;-77
2022/03/18 10:48:29;;;;;;;15.23;8.70;;;;;;;-2.97;58.99;102518.16;1766771;81;21185;-77
2022/03/18 10:51:29;;;;;;;86.60;37.53;;;;;;;-2.93;59.65;102519.38;1766595;81;21209;-76
2022/03/18 10:54:35;;;;;;;71.57;30.25;;;;;;;-2.83;60.81;102510.20;1766543;81;21731;-82
2022/03/18 10:57:40;;;;;;;15.30;8.88;;;;;;;-2.69;59.49;102502.30;1766520;81;21796;-76
2022/03/18 11:00:52;;;;;;;10.85;6.80;;;;;;;-2.61;59.00;102513.71;1766550;81;21698;-83
2022/03/18 11:03:58;;;;;;;11.38;7.60;;;;;;;-2.61;58.09;102498.52;1765434;81;21236;-82
2022/03/18 11:14:04;;;;;;;12.20;7.30;;;;;;;-2.47;59.22;102503.52;1765229;81;21245;-76
2022/03/18 11:17:09;;;;;;;10.28;7.12;;;;;;;-2.27;58.04;102496.75;1766203;81;21705;-76
2022/03/18 11:20:20;;;;;;;10.75;6.92;;;;;;;-2.17;57.44;102513.02;1766730;81;21169;-76
2022/03/18 11:23:28;;;;;;;14.50;9.50;;;;;;;-2.11;57.16;102490.95;1766724;81;21213;-83
2022/03/18 11:26:34;;;;;;;21.07;13.38;;;;;;;-1.94;56.82;102498.97;1766594;81;21204;-76
2022/03/18 11:29:35;;;;;;;18.25;7.92;;;;;;;-1.84;56.10;102495.98;1766843;81;21165;-82
2022/03/18 11:32:41;;;;;;;20.15;9.30;;;;;;;-1.77;56.69;102503.88;1765728;81;21805;-83
2022/03/18 11:36:04;;;;;;;19.25;7.85;;;;;;;-1.81;56.51;102518.71;1766539;81;21166;-76
2022/03/18 11:39:12;;;;;;;11.48;7.62;;;;;;;-1.86;56.20;102488.92;1765422;81;21809;-82
2022/03/18 11:42:18;;;;;;;132.93;52.55;;;;;;;-1.91;56.81;102499.77;1766697;81;21212;-82
2022/03/18 11:45:42;;;;;;;15.18;9.30;;;;;;;-1.99;56.49;102488.38;1766779;81;21165;-76
2022/03/18 11:49:09;;;;;;;15.30;8.08;;;;;;;-2.01;56.97;102505.45;1761903;81;21205;-76
2022/03/18 11:52:12;;;;;;;13.70;7.95;;;;;;;-2.02;56.41;102497.87;1766721;81;21193;-82
2022/03/18 11:55:21;;;;;;;16.73;9.58;;;;;;;-1.99;57.37;102489.72;1765255;81;21598;-76
2022/03/18 11:58:36;;;;;;;16.35;8.48;;;;;;;-1.86;57.58;102494.28;1763092;81;21228;-82
2022/03/18 12:01:49;;;;;;;15.28;8.45;;;;;;;-1.84;57.34;102493.77;1765443;81;21225;-76
2022/03/18 12:04:58;;;;;;;15.65;8.25;;;;;;;-1.77;57.35;102495.36;1759654;81;21743;-75
2022/03/18 12:08:04;;;;;;;14.33;8.38;;;;;;;-1.68;55.11;102495.56;1759338;80;21203;-76
2022/03/18 12:11:10;;;;;;;11.70;7.55;;;;;;;-1.70;54.96;102497.39;1784205;80;21165;-76
2022/03/18 12:14:16;;;;;;;13.85;8.53;;;;;;;-1.68;55.47;102502.27;1763300;80;21191;-82
2022/03/18 12:17:21;;;;;;;14.43;8.30;;;;;;;-1.73;55.25;102494.82;1784299;80;21197;-83
2022/03/18 12:20:32;;;;;;;14.03;8.23;;;;;;;-1.88;55.89;102493.00;1784420;80;21698;-75
2022/03/18 12:23:40;;;;;;;15.95;8.78;;;;;;;-1.95;56.49;102495.42;1772340;80;21151;-76
2022/03/18 12:26:46;;;;;;;16.15;8.20;;;;;;;-1.90;57.23;102505.55;1756037;81;21170;-82
2022/03/18 12:29:52;;;;;;;16.45;8.48;;;;;;;-1.86;56.51;102489.80;1756353;81;21139;-82
2022/03/18 12:33:08;;;;;;;24.40;8.53;;;;;;;-1.90;54.79;102498.84;1756133;81;21238;-75
2022/03/18 12:36:13;;;;;;;16.48;8.90;;;;;;;-1.95;55.39;102490.52;1756262;81;21187;-82
2022/03/18 12:39:20;;;;;;;14.90;8.35;;;;;;;-1.93;55.73;102494.93;1756199;80;21735;-83
2022/03/18 12:42:29;;;;;;;17.27;9.48;;;;;;;-1.93;55.21;102504.32;1756244;81;21182;-76
2022/03/18 12:45:45;;;;;;;15.80;8.18;;;;;;;-1.96;57.16;102495.01;1756187;81;21735;-76
2022/03/18 12:48:57;;;;;;;15.58;7.15;;;;;;;-1.88;55.94;102478.24;1756230;81;21699;-76
2022/03/18 12:52:01;;;;;;;;;;;;;;;-1.92;54.83;102500.70;1758663;81;21206;-75
2022/03/18 12:55:18;;;;;;;12.55;6.90;;;;;;;-2.03;54.63;102492.06;1787143;80;20594;-77
2022/03/18 12:58:26;;;;;;;14.00;8.18;;;;;;;-2.02;55.35;102496.95;1786849;80;21762;-75
2022/03/18 13:01:34;;;;;;;13.03;8.23;;;;;;;-1.89;55.34;102488.99;1782116;80;21243;-76
2022/03/18 13:04:39;;;;;;;16.93;7.45;;;;;;;-1.69;55.84;102489.78;1784291;80;21191;-82
2022/03/18 13:07:46;;;;;;;14.35;7.12;;;;;;;-1.59;54.84;102491.27;1764333;79;21230;-82
2022/03/18 13:10:52;;;;;;;11.33;7.10;;;;;;;-1.71;53.77;102490.27;1799367;79;21192;-82
2022/03/18 13:13:59;;;;;;;13.60;7.28;;;;;;;-1.92;54.47;102498.03;1799258;79;21598;-75
2022/03/18 13:17:05;;;;;;;10.75;7.12;;;;;;;-2.06;54.83;102499.75;1799081;79;21251;-76
2022/03/18 13:20:10;;;;;;;11.03;6.55;;;;;;;-2.04;55.19;102494.33;1798814;79;21745;-76
2022/03/18 13:23:17;;;;;;;8.83;5.85;;;;;;;-1.92;55.99;102493.12;1760616;79;21145;-76
2022/03/18 13:26:23;;;;;;;11.03;6.25;;;;;;;-1.77;53.92;102513.27;1734117;82;21180;-76
2022/03/18 13:32:55;;;;;;;10.93;7.10;;;;;;;-1.87;53.77;102503.27;1723092;82;21212;-82
2022/03/18 13:36:02;;;;;;;13.38;6.00;;;;;;;-1.82;54.28;102516.95;1734781;82;21145;-76
2022/03/18 13:39:13;;;;;;;12.50;6.40;;;;;;;-1.86;54.18;102500.52;1751053;81;21188;-81
2022/03/18 13:42:30;;;;;;;12.10;6.75;;;;;;;-1.92;54.38;102510.09;1765356;81;21181;-79
2022/03/18 13:45:38;;;;;;;11.08;6.00;;;;;;;-2.07;54.50;102502.45;1765708;81;21185;-77
2022/03/18 13:48:37;;;;;;;8.30;5.67;;;;;;;-2.13;55.14;102511.55;1762826;81;21174;-75
2022/03/18 13:51:47;;;;;;;10.20;6.40;;;;;;;-2.13;55.42;102517.38;1765496;81;21209;-82
2022/03/18 13:54:54;;;;;;;11.40;6.80;;;;;;;-2.13;55.79;102512.89;1762533;81;21146;-76
2022/03/18 13:58:04;;;;;;;10.10;6.90;;;;;;;-2.14;55.59;102520.52;1765038;81;21197;-76
2022/03/18 14:01:15;;;;;;;10.65;6.15;;;;;;;-2.16;55.99;102513.45;1762515;81;21170;-78
2022/03/18 14:04:21;;;;;;;11.60;7.05;;;;;;;-2.13;56.41;102513.35;1766269;81;21158;-83
2022/03/18 14:07:28;;;;;;;11.95;6.33;;;;;;;-2.00;56.71;102512.56;1761560;81;21727;-83
2022/03/18 14:10:49;;;;;;;9.48;6.50;;;;;;;-1.94;56.47;102532.04;1765731;81;21176;-77
2022/03/18 14:13:55;;;;;;;11.28;6.05;;;;;;;-2.02;56.10;102526.03;1761955;81;21730;-83
2022/03/18 14:17:30;;;;;;;12.18;6.03;;;;;;;-2.11;56.89;102522.25;1766018;81;21217;-76
2022/03/18 14:20:38;;;;;;;13.78;6.30;;;;;;;-2.09;57.95;102513.69;1763220;81;21185;-83
2022/03/18 14:23:47;;;;;;;10.82;5.53;;;;;;;-2.08;57.32;102522.15;1764607;81;21182;-83
2022/03/18 14:26:53;;;;;;;15.58;5.87;;;;;;;-2.22;57.11;102535.05;1722235;81;21759;-76
2022/03/18 14:29:59;;;;;;;11.75;6.83;;;;;;;-2.37;57.86;102519.78;1763343;81;21407;-77
2022/03/18 14:33:06;;;;;;;11.85;5.65;;;;;;;-2.44;59.13;102522.22;1766083;81;21193;-76
2022/03/18 14:36:12;;;;;;;8.15;5.65;;;;;;;-2.45;59.77;102518.22;1763678;81;21165;-83
2022/03/18 14:39:18;;;;;;;8.08;5.65;;;;;;;-2.43;59.52;102520.41;1766779;81;21220;-76
2022/03/18 14:42:26;;;;;;;11.57;5.62;;;;;;;-2.43;59.05;102525.31;1764114;81;21730;-77
2022/03/18 14:45:32;;;;;;;13.35;4.95;;;;;;;-2.47;59.44;102525.42;1745682;81;21197;-77
2022/03/18 14:48:39;;;;;;;10.35;5.75;;;;;;;-2.51;60.05;102525.95;1764139;81;21169;-83